createdAt,value
2018-06-13T00:02:13.010Z,79.50
2018-06-13T00:04:43.691Z,79.50
2018-06-13T00:07:14.372Z,79.60
2018-06-13T00:09:45.078Z,80.10
2018-06-13T00:12:15.739Z,79.60
2018-06-13T00:14:46.436Z,80.20
2018-06-13T00:17:17.126Z,80.00
2018-06-13T00:19:47.785Z,80.30
2018-06-13T00:22:18.493Z,79.20
2018-06-13T00:24:49.357Z,79.40
2018-06-13T00:27:20.058Z,78.30
2018-06-13T00:29:50.920Z,78.50
2018-06-13T00:32:21.619Z,79.30
2018-06-13T00:34:53.200Z,79.40
2018-06-13T00:37:23.874Z,79.60
2018-06-13T00:39:54.541Z,81.00
2018-06-13T00:42:25.239Z,80.60
2018-06-13T00:44:55.930Z,79.70
2018-06-13T00:47:26.601Z,79.10
2018-06-13T00:49:57.301Z,79.00
2018-06-13T00:52:27.955Z,77.50
2018-06-13T00:54:58.656Z,77.50
2018-06-13T00:57:29.317Z,78.10
2018-06-13T00:59:59.999Z,77.40
2018-06-13T01:02:30.690Z,75.90
2018-06-13T01:05:01.388Z,77.70
2018-06-13T01:07:32.085Z,79.10
2018-06-13T01:10:02.779Z,80.00
2018-06-13T01:12:33.474Z,80.70
2018-06-13T01:15:04.163Z,80.70
2018-06-13T01:17:34.883Z,80.90
2018-06-13T01:20:05.571Z,80.60
2018-06-13T01:22:36.283Z,81.50
2018-06-13T01:25:06.947Z,80.30
2018-06-13T01:27:37.659Z,80.60
2018-06-13T01:30:08.339Z,80.70
2018-06-13T01:32:39.032Z,81.30
2018-06-13T01:35:09.701Z,81.70
2018-06-13T01:37:40.394Z,81.80
2018-06-13T01:40:11.069Z,81.70
2018-06-13T01:42:41.763Z,81.80
2018-06-13T01:45:12.448Z,81.90
2018-06-13T01:47:43.163Z,82.40
2018-06-13T01:50:13.836Z,81.90
2018-06-13T01:52:44.538Z,81.60
2018-06-13T01:55:15.219Z,82.30
2018-06-13T01:57:45.927Z,82.40
2018-06-13T02:00:16.595Z,81.70
2018-06-13T02:02:47.300Z,82.20
2018-06-13T02:05:17.987Z,84.00
2018-06-13T02:07:48.723Z,83.10
2018-06-13T02:10:19.435Z,82.50
2018-06-13T02:12:50.093Z,84.00
2018-06-13T02:15:20.833Z,83.40
2018-06-13T02:17:51.495Z,83.30
2018-06-13T02:20:22.183Z,83.70
2018-06-13T02:22:52.836Z,83.80
2018-06-13T02:25:23.540Z,83.10
2018-06-13T02:27:54.200Z,83.60
2018-06-13T02:30:24.923Z,83.90
2018-06-13T02:32:55.582Z,83.80
2018-06-13T02:35:26.279Z,84.30
2018-06-13T02:37:56.927Z,84.30
2018-06-13T02:40:27.615Z,83.90
2018-06-13T02:42:58.283Z,84.50
2018-06-13T02:45:29.337Z,85.50
2018-06-13T02:47:59.996Z,84.40
2018-06-13T02:50:30.683Z,84.00
2018-06-13T02:53:01.375Z,85.40
2018-06-13T02:55:32.086Z,84.90
2018-06-13T02:58:02.741Z,84.80
2018-06-13T03:00:33.434Z,85.40
2018-06-13T03:03:04.112Z,85.60
2018-06-13T03:05:34.803Z,85.00
2018-06-13T03:08:05.649Z,84.00
2018-06-13T03:10:36.341Z,84.00
2018-06-13T03:13:07.023Z,83.70
2018-06-13T03:15:37.725Z,84.70
2018-06-13T03:18:08.409Z,84.50
2018-06-13T03:20:39.111Z,85.10
2018-06-13T03:23:09.755Z,84.40
2018-06-13T03:25:40.434Z,83.80
2018-06-13T03:28:11.083Z,84.20
2018-06-13T03:30:41.772Z,84.30
2018-06-13T03:33:12.455Z,84.30
2018-06-13T03:35:43.164Z,84.40
2018-06-13T03:38:13.815Z,84.60
2018-06-13T03:40:44.519Z,84.40
2018-06-13T03:43:15.176Z,84.00
2018-06-13T03:45:45.867Z,84.20
2018-06-13T03:48:16.555Z,84.80
2018-06-13T03:50:47.237Z,84.80
2018-06-13T03:53:17.919Z,85.90
2018-06-13T03:55:48.625Z,85.20
2018-06-13T03:58:19.319Z,85.10
2018-06-13T04:00:49.971Z,85.20
2018-06-13T04:03:20.643Z,85.00
2018-06-13T04:05:51.336Z,84.50
2018-06-13T04:08:22.024Z,85.10
2018-06-13T04:10:52.671Z,84.20
2018-06-13T04:13:23.344Z,85.10
2018-06-13T04:15:54.040Z,85.60
2018-06-13T04:18:24.687Z,84.60
2018-06-13T04:20:55.390Z,84.40
2018-06-13T04:23:26.044Z,85.00
2018-06-13T04:25:56.732Z,84.80
2018-06-13T04:28:27.379Z,84.80
2018-06-13T04:30:58.075Z,84.70
2018-06-13T04:33:28.760Z,84.70
2018-06-13T04:35:59.448Z,85.30
2018-06-13T04:38:30.108Z,84.80
2018-06-13T04:41:00.815Z,84.30
2018-06-13T04:43:31.483Z,84.60
2018-06-13T04:46:02.186Z,84.20
2018-06-13T04:48:32.863Z,84.50
2018-06-13T04:51:03.563Z,84.60
2018-06-13T04:53:34.256Z,85.80
2018-06-13T04:56:05.349Z,85.20
2018-06-13T04:58:36.020Z,84.30
2018-06-13T05:01:06.711Z,84.50
2018-06-13T05:03:37.399Z,84.70
2018-06-13T05:06:08.543Z,86.00
2018-06-13T05:08:39.216Z,85.50
2018-06-13T05:11:09.911Z,84.60
2018-06-13T05:13:40.565Z,84.30
2018-06-13T05:16:11.267Z,84.70
2018-06-13T05:18:41.944Z,85.20
2018-06-13T05:21:12.639Z,84.60
2018-06-13T05:23:43.337Z,83.90
2018-06-13T05:26:14.020Z,84.10
2018-06-13T05:28:44.730Z,83.90
2018-06-13T05:31:15.595Z,84.60
2018-06-13T05:33:46.272Z,84.30
2018-06-13T05:36:16.971Z,83.90
2018-06-13T05:38:48.616Z,84.80
2018-06-13T05:41:19.281Z,84.20
2018-06-13T05:43:50.012Z,84.40
2018-06-13T05:46:20.830Z,84.80
2018-06-13T05:48:53.522Z,84.70
2018-06-13T05:51:24.756Z,84.30
2018-06-13T05:53:55.473Z,84.50
2018-06-13T05:56:26.141Z,85.20
2018-06-13T05:58:56.901Z,84.60
2018-06-13T06:01:27.578Z,82.90
2018-06-13T06:03:58.434Z,82.70
2018-06-13T06:06:29.131Z,82.20
2018-06-13T06:08:59.811Z,82.50
2018-06-13T06:11:30.484Z,81.80
2018-06-13T06:14:01.184Z,82.90
2018-06-13T06:16:31.872Z,81.20
2018-06-13T06:19:02.534Z,81.00
2018-06-13T06:21:33.238Z,81.30
2018-06-13T06:24:03.904Z,81.30
2018-06-13T06:26:34.594Z,82.30
2018-06-13T06:29:05.263Z,82.90
2018-06-13T06:31:35.995Z,81.20
2018-06-13T06:34:06.703Z,81.00
2018-06-13T06:36:37.408Z,80.50
2018-06-13T06:39:08.424Z,79.70
2018-06-13T06:41:39.112Z,80.30
2018-06-13T06:44:09.772Z,81.60
2018-06-13T06:46:40.463Z,80.70
2018-06-13T06:49:11.124Z,80.90
2018-06-13T06:51:41.815Z,82.30
2018-06-13T06:54:12.477Z,81.30
2018-06-13T06:56:43.180Z,80.90
2018-06-13T06:59:13.847Z,80.20
2018-06-13T07:01:44.555Z,81.20
2018-06-13T07:04:15.254Z,82.30
2018-06-13T07:06:46.465Z,79.70
2018-06-13T07:09:17.159Z,80.90
2018-06-13T07:11:47.829Z,80.50
2018-06-13T07:14:18.520Z,80.70
2018-06-13T07:16:49.163Z,80.10
2018-06-13T07:19:19.866Z,79.80
2018-06-13T07:21:50.515Z,78.60
2018-06-13T07:24:21.207Z,78.40
2018-06-13T07:26:51.857Z,78.80
2018-06-13T07:29:22.535Z,77.80
2018-06-13T07:31:53.195Z,78.80
2018-06-13T07:34:23.875Z,79.80
2018-06-13T07:36:54.526Z,78.30
2018-06-13T07:39:25.199Z,78.10
2018-06-13T07:41:55.848Z,76.50
2018-06-13T07:44:26.531Z,78.00
2018-06-13T07:49:34.227Z,73.20
2018-06-13T07:52:04.928Z,72.90
2018-06-13T07:54:35.640Z,74.90
2018-06-13T07:57:06.328Z,75.20
2018-06-13T07:59:36.998Z,76.70
2018-06-13T08:02:07.691Z,75.30
2018-06-13T08:04:38.347Z,75.70
2018-06-13T08:07:09.876Z,76.40
2018-06-13T08:09:40.532Z,75.90
2018-06-13T08:12:11.227Z,76.20
2018-06-13T08:14:41.884Z,77.60
2018-06-13T08:17:12.553Z,76.50
2018-06-13T08:19:43.204Z,76.50
2018-06-13T08:22:13.894Z,77.80
2018-06-13T08:24:51.863Z,77.60
2018-06-13T08:27:22.929Z,78.30
2018-06-13T08:29:53.610Z,78.40
2018-06-13T08:32:24.264Z,76.90
2018-06-13T08:34:54.971Z,78.10
2018-06-13T08:37:25.644Z,76.20
2018-06-13T08:39:56.343Z,76.60
2018-06-13T08:42:27.199Z,76.20
2018-06-13T08:44:57.889Z,75.60
2018-06-13T08:47:28.548Z,75.60
2018-06-13T08:49:59.242Z,75.30
2018-06-13T08:52:29.899Z,77.20
2018-06-13T08:55:00.611Z,74.60
2018-06-13T08:57:31.292Z,73.70
2018-06-13T09:00:02.032Z,74.80
2018-06-13T09:02:32.911Z,75.00
2018-06-13T09:05:03.623Z,76.50
2018-06-13T09:07:34.315Z,74.60
2018-06-13T09:10:05.024Z,76.50
2018-06-13T09:12:35.683Z,73.70
2018-06-13T09:15:06.737Z,73.90
2018-06-13T09:17:37.397Z,74.10
2018-06-13T09:20:09.811Z,73.40
2018-06-13T09:22:40.516Z,73.30
2018-06-13T09:25:11.187Z,74.10
2018-06-13T09:27:41.881Z,73.80
2018-06-13T09:30:12.547Z,74.10
2018-06-13T09:32:43.253Z,75.50
2018-06-13T09:35:13.916Z,75.20
2018-06-13T09:37:44.618Z,73.60
2018-06-13T09:40:15.476Z,75.10
2018-06-13T09:42:46.175Z,74.90
2018-06-13T09:45:16.817Z,75.00
2018-06-13T09:47:47.513Z,74.10
2018-06-13T09:50:18.368Z,73.80
2018-06-13T09:52:49.063Z,74.10
2018-06-13T09:55:19.723Z,76.00
2018-06-13T09:57:50.415Z,75.90
2018-06-13T10:00:26.448Z,75.60
2018-06-13T10:02:57.135Z,76.40
2018-06-13T10:05:27.830Z,76.30
2018-06-13T10:07:58.567Z,76.60
2018-06-13T10:10:29.247Z,76.90
2018-06-13T10:12:59.942Z,74.60
2018-06-13T10:15:30.623Z,76.30
2018-06-13T10:18:01.272Z,73.30
2018-06-13T10:20:31.959Z,73.10
2018-06-13T10:23:02.671Z,72.40
2018-06-13T10:25:33.381Z,74.10
2018-06-13T10:28:04.189Z,73.30
2018-06-13T10:30:34.883Z,72.10
2018-06-13T10:33:05.887Z,74.30
2018-06-13T10:35:36.580Z,73.90
2018-06-13T10:38:07.231Z,70.90
2018-06-13T10:40:37.923Z,71.90
2018-06-13T10:43:08.603Z,72.20
2018-06-13T10:45:39.284Z,71.60
2018-06-13T10:48:09.935Z,70.60
2018-06-13T10:50:40.664Z,71.60
2018-06-13T10:53:11.307Z,71.10
2018-06-13T10:55:42.033Z,71.10
2018-06-13T10:58:12.879Z,71.20
2018-06-13T11:00:43.533Z,69.80
2018-06-13T11:03:14.207Z,70.80
2018-06-13T11:05:44.884Z,71.30
2018-06-13T11:08:15.593Z,71.80
2018-06-13T11:10:46.255Z,72.10
2018-06-13T11:13:16.931Z,72.90
2018-06-13T11:15:47.625Z,73.00
2018-06-13T11:18:18.281Z,70.60
2018-06-13T11:20:48.957Z,71.10
2018-06-13T11:23:19.652Z,72.70
2018-06-13T11:25:50.343Z,69.80
2018-06-13T11:28:21.012Z,70.10
2018-06-13T11:30:51.715Z,71.30
2018-06-13T11:33:22.375Z,70.70
2018-06-13T11:35:53.059Z,70.40
2018-06-13T11:38:23.712Z,70.00
2018-06-13T11:40:54.407Z,72.40
2018-06-13T11:43:25.068Z,69.70
2018-06-13T11:45:55.755Z,69.60
2018-06-13T11:48:26.417Z,72.20
2018-06-13T11:50:57.111Z,71.50
2018-06-13T11:53:27.760Z,70.60
2018-06-13T11:55:58.464Z,70.40
2018-06-13T11:58:29.120Z,70.90
2018-06-13T12:00:59.810Z,69.50
2018-06-13T12:03:30.484Z,70.60
2018-06-13T12:06:01.263Z,69.60
2018-06-13T12:08:32.169Z,70.30
2018-06-13T12:11:02.839Z,69.40
2018-06-13T12:13:33.693Z,68.90
2018-06-13T12:16:04.372Z,68.60
2018-06-13T12:18:35.055Z,68.90
2018-06-13T12:21:05.715Z,70.00
2018-06-13T12:23:36.391Z,68.10
2018-06-13T12:26:07.070Z,68.40
2018-06-13T12:28:37.778Z,68.50
2018-06-13T12:31:08.640Z,67.10
2018-06-13T12:33:39.320Z,67.20
2018-06-13T12:36:09.978Z,67.70
2018-06-13T12:38:40.676Z,68.90
2018-06-13T12:41:11.343Z,69.40
2018-06-13T12:43:42.004Z,70.20
2018-06-13T12:46:12.672Z,69.30
2018-06-13T12:48:43.315Z,69.00
2018-06-13T12:51:13.988Z,69.10
2018-06-13T12:53:44.661Z,68.80
2018-06-13T12:56:15.387Z,66.40
2018-06-13T12:58:46.061Z,67.80
2018-06-13T13:01:16.912Z,66.60
2018-06-13T13:03:47.561Z,67.40
2018-06-13T13:06:18.263Z,68.60
2018-06-13T13:08:48.975Z,66.80
2018-06-13T13:11:19.800Z,65.90
2018-06-13T13:13:50.463Z,66.50
2018-06-13T13:16:21.152Z,65.80
2018-06-13T13:18:51.827Z,64.30
2018-06-13T13:21:22.466Z,63.60
2018-06-13T13:23:53.154Z,66.20
2018-06-13T13:26:23.876Z,67.30
2018-06-13T13:28:54.544Z,65.20
2018-06-13T13:31:25.189Z,63.30
2018-06-13T13:33:55.885Z,64.40
2018-06-13T13:36:26.528Z,64.00
2018-06-13T13:38:57.207Z,67.10
2018-06-13T13:41:27.888Z,66.20
2018-06-13T13:43:58.564Z,68.10
2018-06-13T13:46:29.247Z,66.90
2018-06-13T13:49:00.175Z,67.40
2018-06-13T13:51:30.828Z,65.00
2018-06-13T13:54:01.617Z,65.60
2018-06-13T13:56:32.478Z,65.40
2018-06-13T13:59:03.155Z,66.10
2018-06-13T14:01:33.804Z,65.00
2018-06-13T14:04:04.840Z,59.80
2018-06-13T14:06:35.544Z,60.20
2018-06-13T14:09:08.373Z,60.40
2018-06-13T14:11:39.015Z,60.50
2018-06-13T14:14:09.694Z,62.00
2018-06-13T14:16:40.368Z,59.90
2018-06-13T14:19:11.065Z,59.00
2018-06-13T14:21:41.711Z,58.40
2018-06-13T14:24:12.381Z,58.70
2018-06-13T14:26:43.016Z,56.20
2018-06-13T14:29:13.699Z,57.70
2018-06-13T14:31:44.379Z,61.20
2018-06-13T14:34:15.032Z,59.90
2018-06-13T14:36:45.706Z,59.10
2018-06-13T14:39:16.391Z,60.10
2018-06-13T14:41:47.063Z,62.00
2018-06-13T14:44:17.711Z,58.30
2018-06-13T14:46:48.591Z,61.70
2018-06-13T14:49:19.252Z,60.20
2018-06-13T14:51:53.672Z,60.80
2018-06-13T14:54:24.326Z,60.50
2018-06-13T14:56:55.076Z,59.00
2018-06-13T14:59:25.767Z,59.70
2018-06-13T15:01:56.655Z,58.50
2018-06-13T15:04:32.661Z,59.10
2018-06-13T15:07:05.011Z,58.90
2018-06-13T15:09:35.695Z,60.40
2018-06-13T15:12:06.519Z,60.10
2018-06-13T15:14:37.220Z,58.30
2018-06-13T15:17:07.917Z,58.00
2018-06-13T15:19:38.699Z,61.20
2018-06-13T15:22:09.335Z,59.30
2018-06-13T15:24:40.064Z,57.00
2018-06-13T15:27:10.736Z,58.70
2018-06-13T15:29:42.027Z,59.20
2018-06-13T15:32:12.684Z,58.50
2018-06-13T15:34:43.377Z,58.70
2018-06-13T15:37:14.396Z,56.00
2018-06-13T15:39:45.078Z,54.90
2018-06-13T15:42:15.928Z,55.40
2018-06-13T15:44:46.817Z,55.20
2018-06-13T15:47:17.700Z,53.70
2018-06-13T15:49:48.375Z,54.20
2018-06-13T15:52:19.063Z,54.80
2018-06-13T15:54:49.938Z,54.50
2018-06-13T15:57:20.585Z,53.60
2018-06-13T15:59:51.258Z,52.80
2018-06-13T16:02:21.939Z,54.50
2018-06-13T16:04:52.623Z,55.50
2018-06-13T16:07:23.340Z,55.50
2018-06-13T16:09:54.032Z,56.90
2018-06-13T16:12:24.900Z,56.60
2018-06-13T16:14:55.571Z,57.10
2018-06-13T16:17:26.243Z,57.70
2018-06-13T16:19:56.933Z,57.30
2018-06-13T16:22:27.591Z,57.00
2018-06-13T16:24:58.469Z,58.30
2018-06-13T16:27:29.364Z,58.40
2018-06-13T16:32:31.734Z,58.60
2018-06-13T16:35:02.423Z,58.90
2018-06-13T16:37:33.080Z,60.80
2018-06-13T16:40:04.121Z,61.70
2018-06-13T16:42:34.812Z,61.20
2018-06-13T16:45:05.831Z,59.80
2018-06-13T16:47:36.516Z,60.60
2018-06-13T16:50:18.756Z,61.50
2018-06-13T16:52:59.544Z,59.60
2018-06-13T16:55:30.234Z,59.00
2018-06-13T16:58:00.895Z,58.90
2018-06-13T17:00:31.576Z,61.30
2018-06-13T17:03:02.433Z,60.90
2018-06-13T17:05:33.104Z,59.40
2018-06-13T17:08:03.808Z,59.30
2018-06-13T17:10:34.485Z,58.30
2018-06-13T17:13:05.144Z,58.30
2018-06-13T17:15:35.864Z,58.40
2018-06-13T17:18:06.696Z,57.90
2018-06-13T17:20:37.371Z,58.80
2018-06-13T17:23:08.603Z,58.90
2018-06-13T17:25:39.274Z,58.50
2018-06-13T17:28:09.911Z,59.60
2018-06-13T17:30:40.639Z,59.00
2018-06-13T17:33:11.260Z,59.10
2018-06-13T17:35:48.272Z,57.90
2018-06-13T17:38:19.919Z,58.40
2018-06-13T17:40:50.616Z,59.00
2018-06-13T17:43:21.263Z,61.10
2018-06-13T17:45:51.944Z,59.80
2018-06-13T17:48:22.627Z,61.50
2018-06-13T17:50:53.308Z,60.50
2018-06-13T17:53:23.955Z,61.00
2018-06-13T17:55:54.626Z,60.80
2018-06-13T17:58:25.259Z,61.40
2018-06-13T18:00:55.945Z,62.60
2018-06-13T18:03:26.588Z,62.80
2018-06-13T18:05:57.271Z,62.40
2018-06-13T18:08:28.215Z,61.50
2018-06-13T18:10:58.904Z,62.50
2018-06-13T18:13:29.563Z,60.80
2018-06-13T18:16:00.237Z,60.00
2018-06-13T18:18:30.872Z,59.80
2018-06-13T18:21:01.539Z,60.30
2018-06-13T18:23:32.229Z,60.70
2018-06-13T18:26:02.901Z,59.70
2018-06-13T18:28:33.585Z,61.10
2018-06-13T18:31:04.455Z,61.60
2018-06-13T18:33:35.119Z,60.40
2018-06-13T18:36:05.999Z,59.10
2018-06-13T18:38:36.655Z,61.10
2018-06-13T18:41:07.332Z,62.40
2018-06-13T18:43:38.002Z,63.30
2018-06-13T18:46:08.828Z,60.90
2018-06-13T18:48:39.616Z,62.10
2018-06-13T18:51:10.292Z,61.20
2018-06-13T18:53:40.967Z,61.80
2018-06-13T18:56:11.612Z,62.30
2018-06-13T18:58:42.288Z,63.60
2018-06-13T19:01:12.971Z,64.50
2018-06-13T19:03:43.696Z,63.90
2018-06-13T19:06:14.528Z,63.70
2018-06-13T19:08:45.239Z,65.90
2018-06-13T19:11:15.942Z,64.30
2018-06-13T19:13:46.857Z,67.20
2018-06-13T19:16:17.527Z,64.90
2018-06-13T19:18:48.223Z,66.40
2018-06-13T19:21:18.863Z,69.10
2018-06-13T19:23:49.547Z,66.20
2018-06-13T19:26:20.219Z,66.50
2018-06-13T19:28:50.871Z,66.80
2018-06-13T19:31:21.547Z,68.00
2018-06-13T19:33:52.197Z,66.60
2018-06-13T19:36:22.872Z,66.10
2018-06-13T19:38:53.525Z,67.70
2018-06-13T19:41:24.190Z,67.90
2018-06-13T19:43:54.848Z,67.80
2018-06-13T19:46:25.532Z,67.50
2018-06-13T19:48:56.195Z,68.50
2018-06-13T19:51:26.898Z,69.60
2018-06-13T19:54:04.748Z,70.80
2018-06-13T19:56:35.400Z,72.70
2018-06-13T19:59:06.075Z,72.60
2018-06-13T20:01:36.720Z,72.40
2018-06-13T20:04:12.967Z,73.70
2018-06-13T20:06:43.772Z,72.30
2018-06-13T20:09:14.486Z,73.70
2018-06-13T20:11:45.140Z,73.20
2018-06-13T20:14:21.287Z,75.20
2018-06-13T20:16:57.403Z,75.10
2018-06-13T20:19:34.303Z,74.00
2018-06-13T20:22:04.957Z,74.30
2018-06-13T20:24:35.650Z,74.10
2018-06-13T20:27:11.592Z,73.60
2018-06-13T20:30:45.720Z,74.60
2018-06-13T20:33:16.381Z,75.50
2018-06-13T20:35:47.691Z,75.90
2018-06-13T20:38:18.350Z,76.50
2018-06-13T20:40:49.035Z,77.20
2018-06-13T20:43:19.771Z,76.80
2018-06-13T20:45:50.479Z,76.50
2018-06-13T20:48:21.187Z,77.20
2018-06-13T20:50:52.071Z,77.60
2018-06-13T20:53:22.747Z,78.50
2018-06-13T20:55:53.435Z,78.10
2018-06-13T20:58:24.491Z,78.40
2018-06-13T21:00:55.201Z,79.30
2018-06-13T21:03:25.888Z,79.80
2018-06-13T21:05:56.673Z,79.90
2018-06-13T21:08:27.873Z,80.20
2018-06-13T21:13:28.870Z,80.80
2018-06-13T21:15:59.555Z,80.20
2018-06-13T21:18:30.237Z,80.90
2018-06-13T21:21:00.931Z,81.10
2018-06-13T21:23:31.615Z,81.10
2018-06-13T21:26:02.326Z,82.60
2018-06-13T21:28:32.996Z,82.80
2018-06-13T21:31:04.120Z,83.10
2018-06-13T21:33:38.597Z,82.90
2018-06-13T21:36:13.863Z,82.40
2018-06-13T21:38:47.954Z,82.30
2018-06-13T21:41:20.987Z,82.00
2018-06-13T21:43:57.580Z,82.20
2018-06-13T21:46:44.465Z,82.50
2018-06-13T21:49:25.997Z,84.00
2018-06-13T21:52:01.006Z,82.90
2018-06-13T21:54:40.978Z,82.20
2018-06-13T21:57:17.936Z,83.00
2018-06-13T21:59:54.558Z,82.50
2018-06-13T22:02:30.528Z,83.00
2018-06-13T22:05:09.289Z,82.80
2018-06-13T22:07:44.854Z,83.20
2018-06-13T22:10:18.958Z,83.50
2018-06-13T22:12:52.917Z,83.40
2018-06-13T22:15:26.463Z,83.40
2018-06-13T22:18:00.704Z,83.40
2018-06-13T22:20:37.189Z,83.70
2018-06-13T22:23:09.887Z,83.40
2018-06-13T22:25:45.051Z,83.90
2018-06-13T22:28:17.735Z,83.90
2018-06-13T22:30:53.303Z,83.30
2018-06-13T22:33:33.661Z,84.10
2018-06-13T22:36:06.115Z,84.10
2018-06-13T22:38:38.637Z,84.20
2018-06-13T22:41:11.576Z,84.50
2018-06-13T22:43:43.859Z,84.10
2018-06-13T22:46:17.090Z,84.30
2018-06-13T22:48:50.114Z,84.70
2018-06-13T22:51:22.611Z,84.80
2018-06-13T22:53:54.699Z,84.70
2018-06-13T22:56:27.568Z,84.90
2018-06-13T22:58:59.382Z,84.40
2018-06-13T23:01:31.458Z,85.00
2018-06-13T23:04:02.618Z,85.20
2018-06-13T23:06:33.957Z,84.80
2018-06-13T23:09:07.254Z,84.90
2018-06-13T23:11:38.229Z,85.10
2018-06-13T23:14:09.228Z,84.90
2018-06-13T23:16:40.288Z,85.00
2018-06-13T23:19:10.959Z,85.00
2018-06-13T23:21:41.648Z,84.80
2018-06-13T23:24:12.338Z,85.00
2018-06-13T23:26:43.060Z,84.00
2018-06-13T23:29:13.908Z,84.70
2018-06-13T23:31:44.636Z,83.80
2018-06-13T23:34:15.326Z,83.60
2018-06-13T23:36:45.971Z,83.60
2018-06-13T23:39:16.664Z,83.80
2018-06-13T23:41:47.315Z,84.30
2018-06-13T23:44:18.027Z,84.60
2018-06-13T23:46:48.692Z,84.90
2018-06-13T23:49:19.551Z,85.00
2018-06-13T23:51:50.250Z,85.50
2018-06-13T23:54:20.908Z,85.90
2018-06-13T23:56:52.123Z,86.00
2018-06-13T23:59:22.779Z,85.80
